sensor_id;sensor_type;location;lat;lon;timestamp;P1;durP1;ratioP1;P2;durP2;ratioP2
17235;SDS011;8734;59.272;17.780;2023-05-10T00:01:39;13.30;;;4.77;;
17235;SDS011;8734;59.272;17.780;2023-05-10T00:04:07;13.30;;;4.97;;
17235;SDS011;8734;59.272;17.780;2023-05-10T00:06:35;12.00;;;5.60;;
17235;SDS011;8734;59.272;17.780;2023-05-10T00:09:04;11.57;;;5.43;;
17235;SDS011;8734;59.272;17.780;2023-05-10T00:11:33;8.53;;;3.53;;
17235;SDS011;8734;59.272;17.780;2023-05-10T00:14:02;13.47;;;5.00;;
17235;SDS011;8734;59.272;17.780;2023-05-10T00:16:31;12.93;;;5.77;;
17235;SDS011;8734;59.272;17.780;2023-05-10T00:18:59;10.63;;;4.77;;
17235;SDS011;8734;59.272;17.780;2023-05-10T00:21:27;15.23;;;6.07;;
17235;SDS011;8734;59.272;17.780;2023-05-10T00:23:55;14.47;;;5.50;;
17235;SDS011;8734;59.272;17.780;2023-05-10T00:26:24;13.20;;;5.57;;
17235;SDS011;8734;59.272;17.780;2023-05-10T00:28:53;18.83;;;6.20;;
17235;SDS011;8734;59.272;17.780;2023-05-10T00:31:22;12.80;;;5.53;;
17235;SDS011;8734;59.272;17.780;2023-05-10T00:33:50;14.07;;;5.80;;
17235;SDS011;8734;59.272;17.780;2023-05-10T00:36:18;14.60;;;5.83;;
17235;SDS011;8734;59.272;17.780;2023-05-10T00:38:47;17.13;;;6.40;;
17235;SDS011;8734;59.272;17.780;2023-05-10T00:41:15;13.27;;;5.77;;
17235;SDS011;8734;59.272;17.780;2023-05-10T00:43:44;13.53;;;6.13;;
17235;SDS011;8734;59.272;17.780;2023-05-10T00:46:13;13.27;;;6.60;;
17235;SDS011;8734;59.272;17.780;2023-05-10T00:48:43;17.33;;;8.00;;
17235;SDS011;8734;59.272;17.780;2023-05-10T00:51:12;11.87;;;5.70;;
17235;SDS011;8734;59.272;17.780;2023-05-10T00:53:41;10.97;;;5.27;;
17235;SDS011;8734;59.272;17.780;2023-05-10T00:56:11;12.50;;;5.23;;
17235;SDS011;8734;59.272;17.780;2023-05-10T00:58:39;12.27;;;5.97;;
17235;SDS011;8734;59.272;17.780;2023-05-10T01:01:08;15.47;;;6.83;;
17235;SDS011;8734;59.272;17.780;2023-05-10T01:03:39;13.83;;;6.00;;
17235;SDS011;8734;59.272;17.780;2023-05-10T01:06:08;11.23;;;6.07;;
17235;SDS011;8734;59.272;17.780;2023-05-10T01:08:37;11.83;;;5.80;;
17235;SDS011;8734;59.272;17.780;2023-05-10T01:11:06;13.63;;;6.57;;
17235;SDS011;8734;59.272;17.780;2023-05-10T01:13:35;19.43;;;6.57;;
17235;SDS011;8734;59.272;17.780;2023-05-10T01:16:06;27.13;;;7.53;;
17235;SDS011;8734;59.272;17.780;2023-05-10T01:18:35;14.37;;;6.50;;
17235;SDS011;8734;59.272;17.780;2023-05-10T01:21:14;12.67;;;5.77;;
17235;SDS011;8734;59.272;17.780;2023-05-10T01:26:58;15.83;;;6.63;;
17235;SDS011;8734;59.272;17.780;2023-05-10T01:32:52;15.33;;;6.00;;
17235;SDS011;8734;59.272;17.780;2023-05-10T01:35:30;16.43;;;7.00;;
17235;SDS011;8734;59.272;17.780;2023-05-10T01:38:07;18.33;;;6.53;;
17235;SDS011;8734;59.272;17.780;2023-05-10T01:40:41;18.23;;;7.07;;
17235;SDS011;8734;59.272;17.780;2023-05-10T01:43:17;10.57;;;5.47;;
17235;SDS011;8734;59.272;17.780;2023-05-10T01:45:50;14.07;;;6.23;;
17235;SDS011;8734;59.272;17.780;2023-05-10T01:48:29;14.43;;;5.87;;
17235;SDS011;8734;59.272;17.780;2023-05-10T01:50:58;12.73;;;6.47;;
17235;SDS011;8734;59.272;17.780;2023-05-10T01:53:27;18.20;;;6.73;;
17235;SDS011;8734;59.272;17.780;2023-05-10T01:55:56;20.47;;;6.77;;
17235;SDS011;8734;59.272;17.780;2023-05-10T01:58:27;18.73;;;7.27;;
17235;SDS011;8734;59.272;17.780;2023-05-10T02:00:58;14.33;;;6.10;;
17235;SDS011;8734;59.272;17.780;2023-05-10T02:03:30;13.93;;;6.67;;
17235;SDS011;8734;59.272;17.780;2023-05-10T02:06:00;15.33;;;5.57;;
17235;SDS011;8734;59.272;17.780;2023-05-10T02:08:29;11.63;;;5.70;;
17235;SDS011;8734;59.272;17.780;2023-05-10T02:10:59;11.47;;;6.30;;
17235;SDS011;8734;59.272;17.780;2023-05-10T02:13:28;14.57;;;7.67;;
17235;SDS011;8734;59.272;17.780;2023-05-10T02:15:59;13.63;;;6.60;;
17235;SDS011;8734;59.272;17.780;2023-05-10T02:18:30;13.20;;;6.90;;
17235;SDS011;8734;59.272;17.780;2023-05-10T02:21:01;15.97;;;8.00;;
17235;SDS011;8734;59.272;17.780;2023-05-10T02:23:30;17.63;;;7.20;;
17235;SDS011;8734;59.272;17.780;2023-05-10T02:25:59;18.13;;;6.83;;
17235;SDS011;8734;59.272;17.780;2023-05-10T02:28:28;15.37;;;7.00;;
17235;SDS011;8734;59.272;17.780;2023-05-10T02:30:58;16.60;;;7.47;;
17235;SDS011;8734;59.272;17.780;2023-05-10T02:33:26;11.33;;;6.03;;
17235;SDS011;8734;59.272;17.780;2023-05-10T02:35:59;7.67;;;5.60;;
17235;SDS011;8734;59.272;17.780;2023-05-10T02:38:30;9.67;;;5.63;;
17235;SDS011;8734;59.272;17.780;2023-05-10T02:41:00;13.70;;;6.70;;
17235;SDS011;8734;59.272;17.780;2023-05-10T02:43:30;13.13;;;6.10;;
17235;SDS011;8734;59.272;17.780;2023-05-10T02:46:00;12.90;;;6.67;;
17235;SDS011;8734;59.272;17.780;2023-05-10T02:48:30;10.77;;;6.20;;
17235;SDS011;8734;59.272;17.780;2023-05-10T02:51:00;9.73;;;6.20;;
17235;SDS011;8734;59.272;17.780;2023-05-10T02:53:35;12.80;;;6.80;;
17235;SDS011;8734;59.272;17.780;2023-05-10T02:56:08;19.57;;;6.47;;
17235;SDS011;8734;59.272;17.780;2023-05-10T02:58:40;23.80;;;7.37;;
17235;SDS011;8734;59.272;17.780;2023-05-10T03:01:08;13.80;;;6.57;;
17235;SDS011;8734;59.272;17.780;2023-05-10T03:03:38;14.17;;;7.63;;
17235;SDS011;8734;59.272;17.780;2023-05-10T03:06:07;19.57;;;7.13;;
17235;SDS011;8734;59.272;17.780;2023-05-10T03:08:35;14.17;;;7.00;;
17235;SDS011;8734;59.272;17.780;2023-05-10T03:11:09;13.33;;;7.00;;
17235;SDS011;8734;59.272;17.780;2023-05-10T03:13:56;14.77;;;7.70;;
17235;SDS011;8734;59.272;17.780;2023-05-10T03:16:36;14.60;;;7.07;;
17235;SDS011;8734;59.272;17.780;2023-05-10T03:19:14;17.00;;;7.33;;
17235;SDS011;8734;59.272;17.780;2023-05-10T03:21:47;15.60;;;7.20;;
17235;SDS011;8734;59.272;17.780;2023-05-10T03:24:20;13.80;;;6.97;;
17235;SDS011;8734;59.272;17.780;2023-05-10T03:26:50;13.17;;;7.50;;
17235;SDS011;8734;59.272;17.780;2023-05-10T03:29:23;18.63;;;7.60;;
17235;SDS011;8734;59.272;17.780;2023-05-10T03:31:53;15.50;;;7.47;;
17235;SDS011;8734;59.272;17.780;2023-05-10T03:34:24;15.37;;;7.73;;
17235;SDS011;8734;59.272;17.780;2023-05-10T03:36:53;16.97;;;7.80;;
17235;SDS011;8734;59.272;17.780;2023-05-10T03:39:21;14.27;;;8.13;;
17235;SDS011;8734;59.272;17.780;2023-05-10T03:41:49;15.70;;;8.47;;
17235;SDS011;8734;59.272;17.780;2023-05-10T03:44:17;20.00;;;8.07;;
17235;SDS011;8734;59.272;17.780;2023-05-10T03:46:46;24.17;;;8.17;;
17235;SDS011;8734;59.272;17.780;2023-05-10T03:49:14;12.77;;;6.97;;
17235;SDS011;8734;59.272;17.780;2023-05-10T03:51:44;11.63;;;6.70;;
17235;SDS011;8734;59.272;17.780;2023-05-10T03:54:12;14.67;;;6.23;;
17235;SDS011;8734;59.272;17.780;2023-05-10T03:56:41;17.33;;;6.63;;
17235;SDS011;8734;59.272;17.780;2023-05-10T03:59:09;13.67;;;6.43;;
17235;SDS011;8734;59.272;17.780;2023-05-10T04:01:37;15.97;;;8.47;;
17235;SDS011;8734;59.272;17.780;2023-05-10T04:04:05;14.17;;;5.80;;
17235;SDS011;8734;59.272;17.780;2023-05-10T04:06:34;12.83;;;6.20;;
17235;SDS011;8734;59.272;17.780;2023-05-10T04:09:04;10.63;;;5.83;;
17235;SDS011;8734;59.272;17.780;2023-05-10T04:11:32;11.43;;;5.70;;
17235;SDS011;8734;59.272;17.780;2023-05-10T04:14:00;12.20;;;6.17;;
17235;SDS011;8734;59.272;17.780;2023-05-10T04:16:29;14.63;;;6.07;;
17235;SDS011;8734;59.272;17.780;2023-05-10T04:18:57;12.00;;;5.87;;
17235;SDS011;8734;59.272;17.780;2023-05-10T04:21:26;12.13;;;5.53;;
17235;SDS011;8734;59.272;17.780;2023-05-10T04:23:54;14.80;;;5.77;;
17235;SDS011;8734;59.272;17.780;2023-05-10T04:26:24;18.83;;;5.13;;
17235;SDS011;8734;59.272;17.780;2023-05-10T04:28:52;10.63;;;4.60;;
17235;SDS011;8734;59.272;17.780;2023-05-10T04:31:20;10.30;;;5.13;;
17235;SDS011;8734;59.272;17.780;2023-05-10T04:33:50;9.37;;;5.37;;
17235;SDS011;8734;59.272;17.780;2023-05-10T04:36:19;8.00;;;4.93;;
17235;SDS011;8734;59.272;17.780;2023-05-10T04:38:47;13.43;;;4.83;;
17235;SDS011;8734;59.272;17.780;2023-05-10T04:41:15;8.33;;;4.67;;
17235;SDS011;8734;59.272;17.780;2023-05-10T04:43:45;10.77;;;4.80;;
17235;SDS011;8734;59.272;17.780;2023-05-10T04:46:15;14.00;;;5.20;;
17235;SDS011;8734;59.272;17.780;2023-05-10T04:48:43;9.57;;;4.37;;
17235;SDS011;8734;59.272;17.780;2023-05-10T04:51:12;13.23;;;5.00;;
17235;SDS011;8734;59.272;17.780;2023-05-10T04:53:40;8.97;;;4.53;;
17235;SDS011;8734;59.272;17.780;2023-05-10T04:56:16;10.47;;;4.23;;
17235;SDS011;8734;59.272;17.780;2023-05-10T04:58:46;13.80;;;4.47;;
17235;SDS011;8734;59.272;17.780;2023-05-10T05:01:14;9.03;;;4.00;;
17235;SDS011;8734;59.272;17.780;2023-05-10T05:03:42;10.70;;;4.57;;
17235;SDS011;8734;59.272;17.780;2023-05-10T05:06:11;10.73;;;4.27;;
17235;SDS011;8734;59.272;17.780;2023-05-10T05:08:39;14.33;;;4.40;;
17235;SDS011;8734;59.272;17.780;2023-05-10T05:11:07;8.50;;;4.10;;
17235;SDS011;8734;59.272;17.780;2023-05-10T05:13:36;10.87;;;4.20;;
17235;SDS011;8734;59.272;17.780;2023-05-10T05:16:06;7.73;;;4.23;;
17235;SDS011;8734;59.272;17.780;2023-05-10T05:18:34;8.63;;;4.50;;
17235;SDS011;8734;59.272;17.780;2023-05-10T05:21:03;9.10;;;4.43;;
17235;SDS011;8734;59.272;17.780;2023-05-10T05:23:40;9.93;;;3.93;;
17235;SDS011;8734;59.272;17.780;2023-05-10T05:26:09;10.07;;;4.00;;
17235;SDS011;8734;59.272;17.780;2023-05-10T05:28:37;7.83;;;3.97;;
17235;SDS011;8734;59.272;17.780;2023-05-10T05:31:07;7.40;;;3.80;;
17235;SDS011;8734;59.272;17.780;2023-05-10T05:33:35;9.20;;;3.97;;
17235;SDS011;8734;59.272;17.780;2023-05-10T05:36:04;9.60;;;4.00;;
17235;SDS011;8734;59.272;17.780;2023-05-10T05:38:33;8.73;;;4.07;;
17235;SDS011;8734;59.272;17.780;2023-05-10T05:41:01;11.23;;;3.63;;
17235;SDS011;8734;59.272;17.780;2023-05-10T05:43:29;6.03;;;3.17;;
17235;SDS011;8734;59.272;17.780;2023-05-10T05:45:58;8.10;;;3.60;;
17235;SDS011;8734;59.272;17.780;2023-05-10T05:48:28;11.03;;;4.63;;
17235;SDS011;8734;59.272;17.780;2023-05-10T05:50:57;6.53;;;3.37;;
17235;SDS011;8734;59.272;17.780;2023-05-10T05:53:25;9.27;;;3.83;;
17235;SDS011;8734;59.272;17.780;2023-05-10T05:55:54;7.43;;;3.60;;
17235;SDS011;8734;59.272;17.780;2023-05-10T05:58:24;7.50;;;2.97;;
17235;SDS011;8734;59.272;17.780;2023-05-10T06:00:53;9.90;;;4.00;;
17235;SDS011;8734;59.272;17.780;2023-05-10T06:03:21;8.17;;;4.20;;
17235;SDS011;8734;59.272;17.780;2023-05-10T06:05:51;13.87;;;3.83;;
17235;SDS011;8734;59.272;17.780;2023-05-10T06:08:19;5.73;;;3.30;;
17235;SDS011;8734;59.272;17.780;2023-05-10T06:10:48;6.43;;;3.53;;
17235;SDS011;8734;59.272;17.780;2023-05-10T06:13:16;8.00;;;3.90;;
17235;SDS011;8734;59.272;17.780;2023-05-10T06:15:44;12.43;;;3.50;;
17235;SDS011;8734;59.272;17.780;2023-05-10T06:18:13;8.13;;;3.63;;
17235;SDS011;8734;59.272;17.780;2023-05-10T06:20:41;7.97;;;3.60;;
17235;SDS011;8734;59.272;17.780;2023-05-10T06:23:11;10.23;;;3.47;;
17235;SDS011;8734;59.272;17.780;2023-05-10T06:25:39;10.17;;;3.63;;
17235;SDS011;8734;59.272;17.780;2023-05-10T06:28:07;7.70;;;3.00;;
17235;SDS011;8734;59.272;17.780;2023-05-10T06:30:36;5.50;;;3.20;;
17235;SDS011;8734;59.272;17.780;2023-05-10T06:33:05;9.67;;;3.20;;
17235;SDS011;8734;59.272;17.780;2023-05-10T06:35:33;6.97;;;3.03;;
17235;SDS011;8734;59.272;17.780;2023-05-10T06:38:01;11.47;;;4.17;;
17235;SDS011;8734;59.272;17.780;2023-05-10T06:40:31;11.57;;;3.20;;
17235;SDS011;8734;59.272;17.780;2023-05-10T06:42:59;5.37;;;3.37;;
17235;SDS011;8734;59.272;17.780;2023-05-10T06:45:27;9.00;;;3.83;;
17235;SDS011;8734;59.272;17.780;2023-05-10T06:47:56;10.53;;;3.30;;
17235;SDS011;8734;59.272;17.780;2023-05-10T06:50:24;5.40;;;3.10;;
17235;SDS011;8734;59.272;17.780;2023-05-10T06:52:52;9.80;;;3.07;;
17235;SDS011;8734;59.272;17.780;2023-05-10T06:55:21;13.93;;;2.63;;
17235;SDS011;8734;59.272;17.780;2023-05-10T06:57:51;5.43;;;2.90;;
17235;SDS011;8734;59.272;17.780;2023-05-10T07:00:20;15.43;;;3.27;;
17235;SDS011;8734;59.272;17.780;2023-05-10T07:02:48;8.17;;;2.97;;
17235;SDS011;8734;59.272;17.780;2023-05-10T07:05:17;9.23;;;3.97;;
17235;SDS011;8734;59.272;17.780;2023-05-10T07:07:46;9.37;;;2.97;;
17235;SDS011;8734;59.272;17.780;2023-05-10T07:10:15;8.07;;;3.30;;
17235;SDS011;8734;59.272;17.780;2023-05-10T07:12:43;17.03;;;3.13;;
17235;SDS011;8734;59.272;17.780;2023-05-10T07:15:13;14.87;;;3.30;;
17235;SDS011;8734;59.272;17.780;2023-05-10T07:17:43;8.53;;;2.97;;
17235;SDS011;8734;59.272;17.780;2023-05-10T07:20:12;7.50;;;3.07;;
17235;SDS011;8734;59.272;17.780;2023-05-10T07:22:40;9.03;;;2.80;;
17235;SDS011;8734;59.272;17.780;2023-05-10T07:25:09;8.57;;;3.27;;
17235;SDS011;8734;59.272;17.780;2023-05-10T07:27:38;9.33;;;3.10;;
17235;SDS011;8734;59.272;17.780;2023-05-10T07:30:06;7.03;;;3.07;;
17235;SDS011;8734;59.272;17.780;2023-05-10T07:32:37;8.00;;;3.83;;
17235;SDS011;8734;59.272;17.780;2023-05-10T07:35:06;6.07;;;3.17;;
17235;SDS011;8734;59.272;17.780;2023-05-10T07:37:35;6.53;;;2.93;;
17235;SDS011;8734;59.272;17.780;2023-05-10T07:40:03;6.37;;;3.13;;
17235;SDS011;8734;59.272;17.780;2023-05-10T07:42:32;3.90;;;2.53;;
17235;SDS011;8734;59.272;17.780;2023-05-10T07:45:00;11.10;;;3.20;;
17235;SDS011;8734;59.272;17.780;2023-05-10T07:47:29;13.47;;;2.83;;
17235;SDS011;8734;59.272;17.780;2023-05-10T07:49:59;3.93;;;2.77;;
17235;SDS011;8734;59.272;17.780;2023-05-10T07:52:27;5.57;;;3.73;;
17235;SDS011;8734;59.272;17.780;2023-05-10T07:54:55;7.27;;;3.13;;
17235;SDS011;8734;59.272;17.780;2023-05-10T07:57:24;4.87;;;2.63;;
17235;SDS011;8734;59.272;17.780;2023-05-10T07:59:52;6.13;;;2.63;;
17235;SDS011;8734;59.272;17.780;2023-05-10T08:02:20;7.50;;;2.50;;
17235;SDS011;8734;59.272;17.780;2023-05-10T08:04:48;4.17;;;2.63;;
17235;SDS011;8734;59.272;17.780;2023-05-10T08:07:18;7.97;;;3.33;;
17235;SDS011;8734;59.272;17.780;2023-05-10T08:09:46;9.53;;;2.73;;
17235;SDS011;8734;59.272;17.780;2023-05-10T08:12:14;5.50;;;2.47;;
17235;SDS011;8734;59.272;17.780;2023-05-10T08:14:43;7.50;;;2.83;;
17235;SDS011;8734;59.272;17.780;2023-05-10T08:17:11;7.23;;;2.63;;
17235;SDS011;8734;59.272;17.780;2023-05-10T08:19:40;5.60;;;2.63;;
17235;SDS011;8734;59.272;17.780;2023-05-10T08:22:08;9.70;;;2.63;;
17235;SDS011;8734;59.272;17.780;2023-05-10T08:24:37;8.70;;;2.83;;
17235;SDS011;8734;59.272;17.780;2023-05-10T08:27:08;6.27;;;2.50;;
17235;SDS011;8734;59.272;17.780;2023-05-10T08:29:37;15.40;;;2.80;;
17235;SDS011;8734;59.272;17.780;2023-05-10T08:32:15;5.07;;;2.27;;
17235;SDS011;8734;59.272;17.780;2023-05-10T08:34:44;5.13;;;2.50;;
17235;SDS011;8734;59.272;17.780;2023-05-10T08:37:12;14.97;;;3.30;;
17235;SDS011;8734;59.272;17.780;2023-05-10T08:39:42;3.73;;;2.47;;
17235;SDS011;8734;59.272;17.780;2023-05-10T08:42:11;11.37;;;2.63;;
17235;SDS011;8734;59.272;17.780;2023-05-10T08:44:43;5.73;;;2.17;;
17235;SDS011;8734;59.272;17.780;2023-05-10T08:47:15;4.70;;;2.37;;
17235;SDS011;8734;59.272;17.780;2023-05-10T08:49:45;12.27;;;2.53;;
17235;SDS011;8734;59.272;17.780;2023-05-10T08:52:15;4.47;;;2.07;;
17235;SDS011;8734;59.272;17.780;2023-05-10T08:54:46;5.30;;;2.73;;
17235;SDS011;8734;59.272;17.780;2023-05-10T08:57:15;5.50;;;2.53;;
17235;SDS011;8734;59.272;17.780;2023-05-10T08:59:43;8.27;;;2.27;;
17235;SDS011;8734;59.272;17.780;2023-05-10T09:02:11;6.73;;;2.70;;
17235;SDS011;8734;59.272;17.780;2023-05-10T09:04:44;5.70;;;2.77;;
17235;SDS011;8734;59.272;17.780;2023-05-10T09:07:12;4.70;;;2.63;;
17235;SDS011;8734;59.272;17.780;2023-05-10T09:09:41;2.93;;;1.80;;
17235;SDS011;8734;59.272;17.780;2023-05-10T09:12:11;12.87;;;2.97;;
17235;SDS011;8734;59.272;17.780;2023-05-10T09:14:42;11.50;;;2.83;;
17235;SDS011;8734;59.272;17.780;2023-05-10T09:17:12;8.97;;;2.60;;
17235;SDS011;8734;59.272;17.780;2023-05-10T09:19:40;9.97;;;2.80;;
17235;SDS011;8734;59.272;17.780;2023-05-10T09:22:09;4.53;;;2.13;;
17235;SDS011;8734;59.272;17.780;2023-05-10T09:24:37;10.47;;;2.73;;
17235;SDS011;8734;59.272;17.780;2023-05-10T09:27:11;5.03;;;2.40;;
17235;SDS011;8734;59.272;17.780;2023-05-10T09:29:41;9.07;;;2.30;;
17235;SDS011;8734;59.272;17.780;2023-05-10T09:32:09;7.37;;;2.37;;
17235;SDS011;8734;59.272;17.780;2023-05-10T09:34:39;4.73;;;2.63;;
17235;SDS011;8734;59.272;17.780;2023-05-10T09:37:08;2.90;;;1.73;;
17235;SDS011;8734;59.272;17.780;2023-05-10T09:39:37;5.53;;;2.20;;
17235;SDS011;8734;59.272;17.780;2023-05-10T09:42:06;4.03;;;2.40;;
17235;SDS011;8734;59.272;17.780;2023-05-10T09:44:36;7.10;;;2.70;;
17235;SDS011;8734;59.272;17.780;2023-05-10T09:47:07;4.83;;;2.37;;
17235;SDS011;8734;59.272;17.780;2023-05-10T09:49:35;11.57;;;2.47;;
17235;SDS011;8734;59.272;17.780;2023-05-10T09:52:04;6.43;;;2.10;;
17235;SDS011;8734;59.272;17.780;2023-05-10T09:54:33;7.27;;;2.27;;
17235;SDS011;8734;59.272;17.780;2023-05-10T09:57:02;6.73;;;2.60;;
17235;SDS011;8734;59.272;17.780;2023-05-10T09:59:32;13.47;;;2.73;;
17235;SDS011;8734;59.272;17.780;2023-05-10T10:02:02;6.23;;;2.20;;
17235;SDS011;8734;59.272;17.780;2023-05-10T10:04:31;4.33;;;2.17;;
17235;SDS011;8734;59.272;17.780;2023-05-10T10:07:00;5.77;;;2.40;;
17235;SDS011;8734;59.272;17.780;2023-05-10T10:09:30;5.40;;;2.17;;
17235;SDS011;8734;59.272;17.780;2023-05-10T10:11:58;3.03;;;2.00;;
17235;SDS011;8734;59.272;17.780;2023-05-10T10:14:27;5.30;;;2.37;;
17235;SDS011;8734;59.272;17.780;2023-05-10T10:16:56;4.93;;;2.10;;
17235;SDS011;8734;59.272;17.780;2023-05-10T10:19:32;7.80;;;1.90;;
17235;SDS011;8734;59.272;17.780;2023-05-10T10:22:02;7.63;;;2.30;;
17235;SDS011;8734;59.272;17.780;2023-05-10T10:24:30;4.13;;;2.17;;
17235;SDS011;8734;59.272;17.780;2023-05-10T10:27:00;7.47;;;2.20;;
17235;SDS011;8734;59.272;17.780;2023-05-10T10:29:36;6.00;;;2.47;;
17235;SDS011;8734;59.272;17.780;2023-05-10T10:32:17;3.87;;;1.97;;
17235;SDS011;8734;59.272;17.780;2023-05-10T10:34:51;6.93;;;2.50;;
17235;SDS011;8734;59.272;17.780;2023-05-10T10:37:21;11.10;;;2.50;;
17235;SDS011;8734;59.272;17.780;2023-05-10T10:39:50;7.87;;;2.00;;
17235;SDS011;8734;59.272;17.780;2023-05-10T10:45:13;4.00;;;1.67;;
17235;SDS011;8734;59.272;17.780;2023-05-10T10:47:42;7.23;;;2.70;;
17235;SDS011;8734;59.272;17.780;2023-05-10T10:50:13;11.43;;;2.30;;
17235;SDS011;8734;59.272;17.780;2023-05-10T10:52:43;8.67;;;3.27;;
17235;SDS011;8734;59.272;17.780;2023-05-10T10:55:11;7.57;;;2.27;;
17235;SDS011;8734;59.272;17.780;2023-05-10T10:57:46;3.33;;;2.00;;
17235;SDS011;8734;59.272;17.780;2023-05-10T11:03:03;4.10;;;2.37;;
17235;SDS011;8734;59.272;17.780;2023-05-10T11:05:42;6.00;;;2.00;;
17235;SDS011;8734;59.272;17.780;2023-05-10T11:08:12;7.47;;;2.43;;
17235;SDS011;8734;59.272;17.780;2023-05-10T11:10:49;18.80;;;1.90;;
17235;SDS011;8734;59.272;17.780;2023-05-10T11:13:37;5.37;;;1.83;;
17235;SDS011;8734;59.272;17.780;2023-05-10T11:16:10;5.93;;;2.27;;
17235;SDS011;8734;59.272;17.780;2023-05-10T11:18:40;2.93;;;2.20;;
17235;SDS011;8734;59.272;17.780;2023-05-10T11:21:20;7.93;;;2.23;;
17235;SDS011;8734;59.272;17.780;2023-05-10T11:23:49;4.00;;;1.67;;
17235;SDS011;8734;59.272;17.780;2023-05-10T11:26:18;4.47;;;2.30;;
17235;SDS011;8734;59.272;17.780;2023-05-10T11:28:49;3.03;;;1.80;;
17235;SDS011;8734;59.272;17.780;2023-05-10T11:31:17;7.20;;;1.70;;
17235;SDS011;8734;59.272;17.780;2023-05-10T11:33:48;4.53;;;2.27;;
17235;SDS011;8734;59.272;17.780;2023-05-10T11:36:18;11.63;;;2.10;;
17235;SDS011;8734;59.272;17.780;2023-05-10T11:38:48;7.93;;;2.17;;
17235;SDS011;8734;59.272;17.780;2023-05-10T11:41:17;8.73;;;2.10;;
17235;SDS011;8734;59.272;17.780;2023-05-10T11:43:49;4.30;;;2.20;;
17235;SDS011;8734;59.272;17.780;2023-05-10T11:46:18;5.00;;;1.90;;
17235;SDS011;8734;59.272;17.780;2023-05-10T11:48:49;6.63;;;1.90;;
17235;SDS011;8734;59.272;17.780;2023-05-10T11:51:21;3.47;;;2.20;;
17235;SDS011;8734;59.272;17.780;2023-05-10T11:53:50;7.03;;;2.30;;
17235;SDS011;8734;59.272;17.780;2023-05-10T11:56:21;4.30;;;1.70;;
17235;SDS011;8734;59.272;17.780;2023-05-10T11:58:52;5.50;;;2.03;;
17235;SDS011;8734;59.272;17.780;2023-05-10T12:01:22;5.63;;;2.30;;
17235;SDS011;8734;59.272;17.780;2023-05-10T12:03:52;5.40;;;1.70;;
17235;SDS011;8734;59.272;17.780;2023-05-10T12:06:25;4.43;;;2.27;;
17235;SDS011;8734;59.272;17.780;2023-05-10T12:08:55;6.23;;;1.90;;
17235;SDS011;8734;59.272;17.780;2023-05-10T12:11:24;9.77;;;2.03;;
17235;SDS011;8734;59.272;17.780;2023-05-10T12:13:54;5.67;;;2.77;;
17235;SDS011;8734;59.272;17.780;2023-05-10T12:16:23;6.60;;;2.50;;
17235;SDS011;8734;59.272;17.780;2023-05-10T12:18:53;16.37;;;2.40;;
17235;SDS011;8734;59.272;17.780;2023-05-10T12:21:25;6.37;;;1.93;;
17235;SDS011;8734;59.272;17.780;2023-05-10T12:23:56;8.50;;;2.30;;
17235;SDS011;8734;59.272;17.780;2023-05-10T12:26:27;4.53;;;1.70;;
17235;SDS011;8734;59.272;17.780;2023-05-10T12:29:11;9.43;;;2.30;;
17235;SDS011;8734;59.272;17.780;2023-05-10T12:31:50;4.80;;;2.33;;
17235;SDS011;8734;59.272;17.780;2023-05-10T12:34:23;13.57;;;2.50;;
17235;SDS011;8734;59.272;17.780;2023-05-10T12:36:54;8.53;;;1.90;;
17235;SDS011;8734;59.272;17.780;2023-05-10T12:39:23;5.93;;;2.40;;
17235;SDS011;8734;59.272;17.780;2023-05-10T12:41:51;6.73;;;1.93;;
17235;SDS011;8734;59.272;17.780;2023-05-10T12:44:19;5.50;;;2.30;;
17235;SDS011;8734;59.272;17.780;2023-05-10T12:46:48;3.70;;;1.70;;
17235;SDS011;8734;59.272;17.780;2023-05-10T12:49:16;11.77;;;2.40;;
17235;SDS011;8734;59.272;17.780;2023-05-10T12:51:46;5.50;;;2.13;;
17235;SDS011;8734;59.272;17.780;2023-05-10T12:54:15;4.70;;;2.20;;
17235;SDS011;8734;59.272;17.780;2023-05-10T12:56:43;6.70;;;1.97;;
17235;SDS011;8734;59.272;17.780;2023-05-10T12:59:12;5.60;;;2.07;;
17235;SDS011;8734;59.272;17.780;2023-05-10T13:01:40;2.27;;;1.57;;
17235;SDS011;8734;59.272;17.780;2023-05-10T13:04:08;6.60;;;2.13;;
17235;SDS011;8734;59.272;17.780;2023-05-10T13:06:37;3.40;;;1.93;;
17235;SDS011;8734;59.272;17.780;2023-05-10T13:09:05;5.53;;;1.83;;
17235;SDS011;8734;59.272;17.780;2023-05-10T13:11:35;7.40;;;2.00;;
17235;SDS011;8734;59.272;17.780;2023-05-10T13:14:03;6.80;;;2.07;;
17235;SDS011;8734;59.272;17.780;2023-05-10T13:16:32;4.63;;;2.03;;
17235;SDS011;8734;59.272;17.780;2023-05-10T13:19:00;3.47;;;2.03;;
17235;SDS011;8734;59.272;17.780;2023-05-10T13:21:29;11.90;;;2.43;;
17235;SDS011;8734;59.272;17.780;2023-05-10T13:23:57;3.63;;;1.70;;
17235;SDS011;8734;59.272;17.780;2023-05-10T13:26:26;5.30;;;1.73;;
17235;SDS011;8734;59.272;17.780;2023-05-10T13:28:56;3.37;;;1.90;;
17235;SDS011;8734;59.272;17.780;2023-05-10T13:31:24;3.67;;;2.10;;
17235;SDS011;8734;59.272;17.780;2023-05-10T13:33:52;7.23;;;1.93;;
17235;SDS011;8734;59.272;17.780;2023-05-10T13:36:21;2.53;;;1.67;;
17235;SDS011;8734;59.272;17.780;2023-05-10T13:38:49;4.03;;;1.73;;
17235;SDS011;8734;59.272;17.780;2023-05-10T13:41:17;3.27;;;2.23;;
17235;SDS011;8734;59.272;17.780;2023-05-10T13:43:46;12.10;;;2.53;;
17235;SDS011;8734;59.272;17.780;2023-05-10T13:46:16;3.40;;;2.20;;
17235;SDS011;8734;59.272;17.780;2023-05-10T13:48:45;3.17;;;1.97;;
17235;SDS011;8734;59.272;17.780;2023-05-10T13:51:14;3.27;;;1.87;;
17235;SDS011;8734;59.272;17.780;2023-05-10T13:53:42;6.77;;;2.37;;
17235;SDS011;8734;59.272;17.780;2023-05-10T13:56:10;3.73;;;2.00;;
17235;SDS011;8734;59.272;17.780;2023-05-10T13:58:38;3.70;;;1.80;;
17235;SDS011;8734;59.272;17.780;2023-05-10T14:01:07;4.10;;;1.97;;
17235;SDS011;8734;59.272;17.780;2023-05-10T14:03:37;5.03;;;2.33;;
17235;SDS011;8734;59.272;17.780;2023-05-10T14:06:06;3.13;;;2.20;;
17235;SDS011;8734;59.272;17.780;2023-05-10T14:08:35;7.30;;;2.00;;
17235;SDS011;8734;59.272;17.780;2023-05-10T14:11:03;2.83;;;2.00;;
17235;SDS011;8734;59.272;17.780;2023-05-10T14:13:32;3.00;;;1.90;;
17235;SDS011;8734;59.272;17.780;2023-05-10T14:16:00;2.40;;;1.87;;
17235;SDS011;8734;59.272;17.780;2023-05-10T14:18:28;4.13;;;2.10;;
17235;SDS011;8734;59.272;17.780;2023-05-10T14:20:58;3.47;;;1.70;;
17235;SDS011;8734;59.272;17.780;2023-05-10T14:23:26;8.70;;;2.37;;
17235;SDS011;8734;59.272;17.780;2023-05-10T14:25:55;12.17;;;2.13;;
17235;SDS011;8734;59.272;17.780;2023-05-10T14:28:24;3.73;;;1.57;;
17235;SDS011;8734;59.272;17.780;2023-05-10T14:30:52;3.10;;;2.00;;
17235;SDS011;8734;59.272;17.780;2023-05-10T14:33:20;6.90;;;1.87;;
17235;SDS011;8734;59.272;17.780;2023-05-10T14:35:49;4.57;;;1.70;;
17235;SDS011;8734;59.272;17.780;2023-05-10T14:38:18;3.43;;;1.73;;
17235;SDS011;8734;59.272;17.780;2023-05-10T14:40:47;3.73;;;2.10;;
17235;SDS011;8734;59.272;17.780;2023-05-10T14:43:15;6.37;;;2.10;;
17235;SDS011;8734;59.272;17.780;2023-05-10T14:45:43;4.63;;;1.90;;
17235;SDS011;8734;59.272;17.780;2023-05-10T14:48:12;7.33;;;1.80;;
17235;SDS011;8734;59.272;17.780;2023-05-10T14:50:44;3.83;;;1.90;;
17235;SDS011;8734;59.272;17.780;2023-05-10T14:53:13;6.33;;;2.03;;
17235;SDS011;8734;59.272;17.780;2023-05-10T14:55:42;2.47;;;1.53;;
17235;SDS011;8734;59.272;17.780;2023-05-10T14:58:11;4.17;;;2.13;;
17235;SDS011;8734;59.272;17.780;2023-05-10T15:00:40;5.27;;;2.00;;
17235;SDS011;8734;59.272;17.780;2023-05-10T15:03:09;3.03;;;1.90;;
17235;SDS011;8734;59.272;17.780;2023-05-10T15:05:37;5.70;;;1.70;;
17235;SDS011;8734;59.272;17.780;2023-05-10T15:08:05;3.53;;;1.87;;
17235;SDS011;8734;59.272;17.780;2023-05-10T15:10:35;8.37;;;2.30;;